sensor_id;sensor_type;location;lat;lon;timestamp;temperature;humidity
4175;DHT22;2101;48.290;14.382;2024-03-08T00:01:10;2.60;99.90
4175;DHT22;2101;48.290;14.382;2024-03-08T00:03:35;2.60;99.90
4175;DHT22;2101;48.290;14.382;2024-03-08T00:06:01;2.60;99.90
4175;DHT22;2101;48.290;14.382;2024-03-08T00:08:28;2.60;99.90
4175;DHT22;2101;48.290;14.382;2024-03-08T00:10:53;2.50;99.90
4175;DHT22;2101;48.290;14.382;2024-03-08T00:13:19;2.50;99.90
4175;DHT22;2101;48.290;14.382;2024-03-08T00:15:45;2.40;99.90
4175;DHT22;2101;48.290;14.382;2024-03-08T00:18:11;2.40;99.90
4175;DHT22;2101;48.290;14.382;2024-03-08T00:20:37;2.30;99.90
4175;DHT22;2101;48.290;14.382;2024-03-08T00:23:06;2.30;99.90
4175;DHT22;2101;48.290;14.382;2024-03-08T00:25:31;2.30;99.90
4175;DHT22;2101;48.290;14.382;2024-03-08T00:27:57;2.30;99.90
4175;DHT22;2101;48.290;14.382;2024-03-08T00:30:23;2.20;99.90
4175;DHT22;2101;48.290;14.382;2024-03-08T00:32:50;2.10;99.90
4175;DHT22;2101;48.290;14.382;2024-03-08T00:35:16;2.10;99.90
4175;DHT22;2101;48.290;14.382;2024-03-08T00:37:42;2.10;99.90
4175;DHT22;2101;48.290;14.382;2024-03-08T00:40:08;2.10;99.90
4175;DHT22;2101;48.290;14.382;2024-03-08T00:42:37;2.00;99.90
4175;DHT22;2101;48.290;14.382;2024-03-08T00:45:04;1.90;99.90
4175;DHT22;2101;48.290;14.382;2024-03-08T00:47:30;1.90;99.90
4175;DHT22;2101;48.290;14.382;2024-03-08T00:49:55;1.80;99.90
4175;DHT22;2101;48.290;14.382;2024-03-08T00:52:22;1.80;99.90
4175;DHT22;2101;48.290;14.382;2024-03-08T00:54:50;1.70;99.90
4175;DHT22;2101;48.290;14.382;2024-03-08T00:57:15;1.70;99.90
4175;DHT22;2101;48.290;14.382;2024-03-08T00:59:42;1.70;99.90
4175;DHT22;2101;48.290;14.382;2024-03-08T01:02:07;1.60;99.90
4175;DHT22;2101;48.290;14.382;2024-03-08T01:04:36;1.60;99.90
4175;DHT22;2101;48.290;14.382;2024-03-08T01:07:02;1.60;99.90
4175;DHT22;2101;48.290;14.382;2024-03-08T01:09:27;1.50;99.90
4175;DHT22;2101;48.290;14.382;2024-03-08T01:11:54;1.50;99.90
4175;DHT22;2101;48.290;14.382;2024-03-08T01:14:21;1.50;99.90
4175;DHT22;2101;48.290;14.382;2024-03-08T01:16:49;1.50;99.90
4175;DHT22;2101;48.290;14.382;2024-03-08T01:19:15;1.50;99.90
4175;DHT22;2101;48.290;14.382;2024-03-08T01:21:41;1.50;99.90
4175;DHT22;2101;48.290;14.382;2024-03-08T01:24:07;1.50;99.90
4175;DHT22;2101;48.290;14.382;2024-03-08T01:26:33;1.40;99.90
4175;DHT22;2101;48.290;14.382;2024-03-08T01:29:02;1.40;99.90
4175;DHT22;2101;48.290;14.382;2024-03-08T01:31:29;1.40;99.90
4175;DHT22;2101;48.290;14.382;2024-03-08T01:33:56;1.30;99.90
4175;DHT22;2101;48.290;14.382;2024-03-08T01:36:22;1.30;99.90
4175;DHT22;2101;48.290;14.382;2024-03-08T01:38:47;1.30;99.90
4175;DHT22;2101;48.290;14.382;2024-03-08T01:41:13;1.30;99.90
4175;DHT22;2101;48.290;14.382;2024-03-08T01:43:39;1.30;99.90
4175;DHT22;2101;48.290;14.382;2024-03-08T01:46:06;1.30;99.90
4175;DHT22;2101;48.290;14.382;2024-03-08T01:48:34;1.30;99.90
4175;DHT22;2101;48.290;14.382;2024-03-08T01:51:00;1.30;99.90
4175;DHT22;2101;48.290;14.382;2024-03-08T01:53:27;1.20;99.90
4175;DHT22;2101;48.290;14.382;2024-03-08T01:55:58;1.20;99.90
4175;DHT22;2101;48.290;14.382;2024-03-08T01:58:27;1.20;99.90
4175;DHT22;2101;48.290;14.382;2024-03-08T02:00:54;1.20;99.90
4175;DHT22;2101;48.290;14.382;2024-03-08T02:03:21;1.10;99.90
4175;DHT22;2101;48.290;14.382;2024-03-08T02:05:49;1.00;99.90
4175;DHT22;2101;48.290;14.382;2024-03-08T02:08:15;1.10;99.90
4175;DHT22;2101;48.290;14.382;2024-03-08T02:10:43;1.00;99.90
4175;DHT22;2101;48.290;14.382;2024-03-08T02:13:11;1.00;99.90
4175;DHT22;2101;48.290;14.382;2024-03-08T02:15:57;1.00;99.90
4175;DHT22;2101;48.290;14.382;2024-03-08T02:18:27;1.00;99.90
4175;DHT22;2101;48.290;14.382;2024-03-08T02:21:01;1.10;99.90
4175;DHT22;2101;48.290;14.382;2024-03-08T02:23:30;1.00;99.90
4175;DHT22;2101;48.290;14.382;2024-03-08T02:25:57;1.00;99.90
4175;DHT22;2101;48.290;14.382;2024-03-08T02:28:23;1.00;99.90
4175;DHT22;2101;48.290;14.382;2024-03-08T02:30:51;1.10;99.90
4175;DHT22;2101;48.290;14.382;2024-03-08T02:33:17;1.00;99.90
4175;DHT22;2101;48.290;14.382;2024-03-08T02:35:44;1.00;99.90
4175;DHT22;2101;48.290;14.382;2024-03-08T02:38:18;1.00;99.90
4175;DHT22;2101;48.290;14.382;2024-03-08T02:40:45;1.10;99.90
4175;DHT22;2101;48.290;14.382;2024-03-08T02:43:12;1.10;99.90
4175;DHT22;2101;48.290;14.382;2024-03-08T02:45:38;1.10;99.90
4175;DHT22;2101;48.290;14.382;2024-03-08T02:48:05;1.10;99.90
4175;DHT22;2101;48.290;14.382;2024-03-08T02:50:34;1.00;99.90
4175;DHT22;2101;48.290;14.382;2024-03-08T02:53:03;1.00;99.90
4175;DHT22;2101;48.290;14.382;2024-03-08T02:55:29;1.00;99.90
4175;DHT22;2101;48.290;14.382;2024-03-08T02:57:56;0.80;99.90
4175;DHT22;2101;48.290;14.382;2024-03-08T03:00:24;0.70;99.90
4175;DHT22;2101;48.290;14.382;2024-03-08T03:02:50;0.70;99.90
4175;DHT22;2101;48.290;14.382;2024-03-08T03:05:22;0.80;99.90
4175;DHT22;2101;48.290;14.382;2024-03-08T03:07:48;0.80;99.90
4175;DHT22;2101;48.290;14.382;2024-03-08T03:10:16;0.90;99.90
4175;DHT22;2101;48.290;14.382;2024-03-08T03:12:45;0.90;99.90
4175;DHT22;2101;48.290;14.382;2024-03-08T03:15:12;0.80;99.90
4175;DHT22;2101;48.290;14.382;2024-03-08T03:17:39;0.80;99.90
4175;DHT22;2101;48.290;14.382;2024-03-08T03:20:07;0.80;99.90
4175;DHT22;2101;48.290;14.382;2024-03-08T03:22:38;0.80;99.90
4175;DHT22;2101;48.290;14.382;2024-03-08T03:25:04;0.80;99.90
4175;DHT22;2101;48.290;14.382;2024-03-08T03:27:32;0.80;99.90
4175;DHT22;2101;48.290;14.382;2024-03-08T03:29:58;0.80;99.90
4175;DHT22;2101;48.290;14.382;2024-03-08T03:32:24;0.70;99.90
4175;DHT22;2101;48.290;14.382;2024-03-08T03:34:50;0.70;99.90
4175;DHT22;2101;48.290;14.382;2024-03-08T03:37:19;0.70;99.90
4175;DHT22;2101;48.290;14.382;2024-03-08T03:39:45;0.60;99.90
4175;DHT22;2101;48.290;14.382;2024-03-08T03:42:18;0.60;99.90
4175;DHT22;2101;48.290;14.382;2024-03-08T03:44:46;0.70;99.90
4175;DHT22;2101;48.290;14.382;2024-03-08T03:47:13;0.70;99.90
4175;DHT22;2101;48.290;14.382;2024-03-08T03:49:40;0.70;99.90
4175;DHT22;2101;48.290;14.382;2024-03-08T03:52:06;0.70;99.90
4175;DHT22;2101;48.290;14.382;2024-03-08T03:54:32;0.70;99.90
4175;DHT22;2101;48.290;14.382;2024-03-08T03:56:58;0.60;99.90
4175;DHT22;2101;48.290;14.382;2024-03-08T03:59:26;0.60;99.90
4175;DHT22;2101;48.290;14.382;2024-03-08T04:01:55;0.60;99.90
4175;DHT22;2101;48.290;14.382;2024-03-08T04:04:21;0.50;99.90
4175;DHT22;2101;48.290;14.382;2024-03-08T04:06:47;0.60;99.90
4175;DHT22;2101;48.290;14.382;2024-03-08T04:09:13;0.60;99.90
4175;DHT22;2101;48.290;14.382;2024-03-08T04:11:39;0.60;99.90
4175;DHT22;2101;48.290;14.382;2024-03-08T04:14:05;0.70;99.90
4175;DHT22;2101;48.290;14.382;2024-03-08T04:16:32;0.70;99.90
4175;DHT22;2101;48.290;14.382;2024-03-08T04:19:00;0.60;99.90
4175;DHT22;2101;48.290;14.382;2024-03-08T04:21:30;0.70;99.90
4175;DHT22;2101;48.290;14.382;2024-03-08T04:23:56;0.80;99.90
4175;DHT22;2101;48.290;14.382;2024-03-08T04:26:22;0.90;99.90
4175;DHT22;2101;48.290;14.382;2024-03-08T04:28:47;0.90;99.90
4175;DHT22;2101;48.290;14.382;2024-03-08T04:31:13;0.90;99.90
4175;DHT22;2101;48.290;14.382;2024-03-08T04:33:39;1.00;99.90
4175;DHT22;2101;48.290;14.382;2024-03-08T04:36:05;1.00;99.90
4175;DHT22;2101;48.290;14.382;2024-03-08T04:38:31;1.00;99.90
4175;DHT22;2101;48.290;14.382;2024-03-08T04:40:57;1.00;99.90
4175;DHT22;2101;48.290;14.382;2024-03-08T04:43:23;1.00;99.90
4175;DHT22;2101;48.290;14.382;2024-03-08T04:45:52;1.00;99.90
4175;DHT22;2101;48.290;14.382;2024-03-08T04:48:19;1.00;99.90
4175;DHT22;2101;48.290;14.382;2024-03-08T04:50:46;1.00;99.90
4175;DHT22;2101;48.290;14.382;2024-03-08T04:53:13;1.00;99.90
4175;DHT22;2101;48.290;14.382;2024-03-08T04:55:41;1.00;99.90
4175;DHT22;2101;48.290;14.382;2024-03-08T04:58:07;1.00;99.90
4175;DHT22;2101;48.290;14.382;2024-03-08T05:00:33;1.00;99.90
4175;DHT22;2101;48.290;14.382;2024-03-08T05:03:07;0.90;99.90
4175;DHT22;2101;48.290;14.382;2024-03-08T05:05:33;0.80;99.90
4175;DHT22;2101;48.290;14.382;2024-03-08T05:07:58;0.90;99.90
4175;DHT22;2101;48.290;14.382;2024-03-08T05:10:24;0.80;99.90
4175;DHT22;2101;48.290;14.382;2024-03-08T05:12:50;0.70;99.90
4175;DHT22;2101;48.290;14.382;2024-03-08T05:15:16;0.70;99.90
4175;DHT22;2101;48.290;14.382;2024-03-08T05:17:41;0.60;99.90
4175;DHT22;2101;48.290;14.382;2024-03-08T05:20:08;0.60;99.90
4175;DHT22;2101;48.290;14.382;2024-03-08T05:22:36;0.60;99.90
4175;DHT22;2101;48.290;14.382;2024-03-08T05:25:02;0.60;99.90
4175;DHT22;2101;48.290;14.382;2024-03-08T05:27:28;0.60;99.90
4175;DHT22;2101;48.290;14.382;2024-03-08T05:29:53;0.50;99.90
4175;DHT22;2101;48.290;14.382;2024-03-08T05:32:19;0.50;99.90
4175;DHT22;2101;48.290;14.382;2024-03-08T05:34:45;0.50;99.90
4175;DHT22;2101;48.290;14.382;2024-03-08T05:37:11;0.50;99.90
4175;DHT22;2101;48.290;14.382;2024-03-08T05:39:37;0.40;99.90
4175;DHT22;2101;48.290;14.382;2024-03-08T05:42:03;0.40;99.90
4175;DHT22;2101;48.290;14.382;2024-03-08T05:44:28;0.30;99.90
4175;DHT22;2101;48.290;14.382;2024-03-08T05:46:56;0.40;99.90
4175;DHT22;2101;48.290;14.382;2024-03-08T05:49:22;0.40;99.90
4175;DHT22;2101;48.290;14.382;2024-03-08T05:51:47;0.40;99.90
4175;DHT22;2101;48.290;14.382;2024-03-08T05:54:13;0.40;99.90
4175;DHT22;2101;48.290;14.382;2024-03-08T05:56:40;0.50;99.90
4175;DHT22;2101;48.290;14.382;2024-03-08T05:59:10;0.60;99.90
4175;DHT22;2101;48.290;14.382;2024-03-08T06:01:36;0.60;99.90
4175;DHT22;2101;48.290;14.382;2024-03-08T06:04:03;0.70;99.90
4175;DHT22;2101;48.290;14.382;2024-03-08T06:06:29;0.70;99.90
4175;DHT22;2101;48.290;14.382;2024-03-08T06:08:55;0.80;99.90
4175;DHT22;2101;48.290;14.382;2024-03-08T06:11:24;0.80;99.90
4175;DHT22;2101;48.290;14.382;2024-03-08T06:13:52;0.80;99.90
4175;DHT22;2101;48.290;14.382;2024-03-08T06:16:25;0.90;99.90
4175;DHT22;2101;48.290;14.382;2024-03-08T06:18:55;0.90;99.90
4175;DHT22;2101;48.290;14.382;2024-03-08T06:21:21;1.00;99.90
4175;DHT22;2101;48.290;14.382;2024-03-08T06:23:48;1.10;99.90
4175;DHT22;2101;48.290;14.382;2024-03-08T06:26:13;1.10;99.90
4175;DHT22;2101;48.290;14.382;2024-03-08T06:28:39;1.10;99.90
4175;DHT22;2101;48.290;14.382;2024-03-08T06:31:05;1.20;99.90
4175;DHT22;2101;48.290;14.382;2024-03-08T06:33:32;1.20;99.90
4175;DHT22;2101;48.290;14.382;2024-03-08T06:35:58;1.30;99.90
4175;DHT22;2101;48.290;14.382;2024-03-08T06:38:24;1.30;99.90
4175;DHT22;2101;48.290;14.382;2024-03-08T06:40:50;1.30;99.90
4175;DHT22;2101;48.290;14.382;2024-03-08T06:43:17;1.40;99.90
4175;DHT22;2101;48.290;14.382;2024-03-08T06:45:46;1.40;99.90
4175;DHT22;2101;48.290;14.382;2024-03-08T06:48:17;1.50;99.90
4175;DHT22;2101;48.290;14.382;2024-03-08T06:50:46;1.60;99.90
4175;DHT22;2101;48.290;14.382;2024-03-08T06:53:13;1.70;99.90
4175;DHT22;2101;48.290;14.382;2024-03-08T06:55:39;1.70;99.90
4175;DHT22;2101;48.290;14.382;2024-03-08T06:58:05;1.80;99.90
4175;DHT22;2101;48.290;14.382;2024-03-08T07:00:33;1.80;99.90
4175;DHT22;2101;48.290;14.382;2024-03-08T07:02:58;1.90;99.90
4175;DHT22;2101;48.290;14.382;2024-03-08T07:05:28;2.00;99.90
4175;DHT22;2101;48.290;14.382;2024-03-08T07:07:54;2.00;99.90
4175;DHT22;2101;48.290;14.382;2024-03-08T07:10:23;2.30;99.90
4175;DHT22;2101;48.290;14.382;2024-03-08T07:12:53;2.50;99.90
4175;DHT22;2101;48.290;14.382;2024-03-08T07:15:19;2.60;99.90
4175;DHT22;2101;48.290;14.382;2024-03-08T07:17:45;2.80;99.90
4175;DHT22;2101;48.290;14.382;2024-03-08T07:20:12;3.30;99.90
4175;DHT22;2101;48.290;14.382;2024-03-08T07:22:39;3.90;99.90
4175;DHT22;2101;48.290;14.382;2024-03-08T07:25:05;4.10;99.90
4175;DHT22;2101;48.290;14.382;2024-03-08T07:27:54;4.10;99.90
4175;DHT22;2101;48.290;14.382;2024-03-08T07:30:21;4.10;99.90
4175;DHT22;2101;48.290;14.382;2024-03-08T07:33:25;4.10;99.90
4175;DHT22;2101;48.290;14.382;2024-03-08T07:35:52;4.40;99.90
4175;DHT22;2101;48.290;14.382;2024-03-08T07:38:18;4.30;99.90
4175;DHT22;2101;48.290;14.382;2024-03-08T07:40:46;4.40;99.90
4175;DHT22;2101;48.290;14.382;2024-03-08T07:43:13;4.50;99.90
4175;DHT22;2101;48.290;14.382;2024-03-08T07:45:39;4.50;99.90
4175;DHT22;2101;48.290;14.382;2024-03-08T07:48:06;4.70;99.90
4175;DHT22;2101;48.290;14.382;2024-03-08T07:50:39;4.60;99.90
4175;DHT22;2101;48.290;14.382;2024-03-08T07:53:08;4.50;99.90
4175;DHT22;2101;48.290;14.382;2024-03-08T07:55:37;4.70;99.90
4175;DHT22;2101;48.290;14.382;2024-03-08T07:58:05;4.80;99.90
4175;DHT22;2101;48.290;14.382;2024-03-08T08:00:31;5.00;99.90
4175;DHT22;2101;48.290;14.382;2024-03-08T08:02:57;4.90;99.90
4175;DHT22;2101;48.290;14.382;2024-03-08T08:05:23;4.90;99.90
4175;DHT22;2101;48.290;14.382;2024-03-08T08:07:49;5.20;99.90
4175;DHT22;2101;48.290;14.382;2024-03-08T08:10:16;5.20;99.90
4175;DHT22;2101;48.290;14.382;2024-03-08T08:12:50;5.10;99.90
4175;DHT22;2101;48.290;14.382;2024-03-08T08:15:16;4.90;99.90
4175;DHT22;2101;48.290;14.382;2024-03-08T08:17:44;4.80;99.90
4175;DHT22;2101;48.290;14.382;2024-03-08T08:20:11;4.80;99.90
4175;DHT22;2101;48.290;14.382;2024-03-08T08:22:41;4.70;99.90
4175;DHT22;2101;48.290;14.382;2024-03-08T08:25:08;4.70;99.90
4175;DHT22;2101;48.290;14.382;2024-03-08T08:27:36;4.70;99.90
4175;DHT22;2101;48.290;14.382;2024-03-08T08:30:03;4.70;99.90
4175;DHT22;2101;48.290;14.382;2024-03-08T08:32:36;4.60;99.90
4175;DHT22;2101;48.290;14.382;2024-03-08T08:35:03;4.60;99.90
4175;DHT22;2101;48.290;14.382;2024-03-08T08:37:30;4.70;99.90
4175;DHT22;2101;48.290;14.382;2024-03-08T08:39:57;4.90;99.90
4175;DHT22;2101;48.290;14.382;2024-03-08T08:42:23;5.10;99.90
4175;DHT22;2101;48.290;14.382;2024-03-08T08:44:49;5.10;99.90
4175;DHT22;2101;48.290;14.382;2024-03-08T08:47:16;4.90;99.90
4175;DHT22;2101;48.290;14.382;2024-03-08T08:49:45;5.20;99.90
4175;DHT22;2101;48.290;14.382;2024-03-08T08:52:15;5.30;99.90
4175;DHT22;2101;48.290;14.382;2024-03-08T08:54:42;5.20;99.90
4175;DHT22;2101;48.290;14.382;2024-03-08T08:57:08;5.40;99.90
4175;DHT22;2101;48.290;14.382;2024-03-08T08:59:34;5.40;99.90
4175;DHT22;2101;48.290;14.382;2024-03-08T09:02:02;5.30;99.90
4175;DHT22;2101;48.290;14.382;2024-03-08T09:04:29;5.40;99.90
4175;DHT22;2101;48.290;14.382;2024-03-08T09:06:56;5.50;99.90
4175;DHT22;2101;48.290;14.382;2024-03-08T09:09:22;5.70;99.90
4175;DHT22;2101;48.290;14.382;2024-03-08T09:11:48;6.10;99.90
4175;DHT22;2101;48.290;14.382;2024-03-08T09:14:15;5.90;99.90
4175;DHT22;2101;48.290;14.382;2024-03-08T09:16:41;5.90;99.90
4175;DHT22;2101;48.290;14.382;2024-03-08T09:19:07;5.70;99.90
4175;DHT22;2101;48.290;14.382;2024-03-08T09:21:33;5.70;99.90
4175;DHT22;2101;48.290;14.382;2024-03-08T09:24:01;5.70;99.90
4175;DHT22;2101;48.290;14.382;2024-03-08T09:26:26;5.60;99.90
4175;DHT22;2101;48.290;14.382;2024-03-08T09:28:52;5.40;99.90
4175;DHT22;2101;48.290;14.382;2024-03-08T09:31:21;5.70;99.90
4175;DHT22;2101;48.290;14.382;2024-03-08T09:33:46;5.80;99.90
4175;DHT22;2101;48.290;14.382;2024-03-08T09:36:13;5.90;99.90
4175;DHT22;2101;48.290;14.382;2024-03-08T09:38:40;5.80;99.90
4175;DHT22;2101;48.290;14.382;2024-03-08T09:41:06;5.80;99.90
4175;DHT22;2101;48.290;14.382;2024-03-08T09:43:32;5.90;99.90
4175;DHT22;2101;48.290;14.382;2024-03-08T09:45:59;6.00;99.90
4175;DHT22;2101;48.290;14.382;2024-03-08T09:48:26;5.80;99.90
4175;DHT22;2101;48.290;14.382;2024-03-08T09:50:52;6.10;99.90
4175;DHT22;2101;48.290;14.382;2024-03-08T09:53:17;6.10;99.90
4175;DHT22;2101;48.290;14.382;2024-03-08T09:55:44;6.20;99.90
4175;DHT22;2101;48.290;14.382;2024-03-08T09:58:16;6.20;99.90
4175;DHT22;2101;48.290;14.382;2024-03-08T10:00:47;6.60;99.90
4175;DHT22;2101;48.290;14.382;2024-03-08T10:03:13;6.40;99.90
4175;DHT22;2101;48.290;14.382;2024-03-08T10:05:41;6.40;99.90
4175;DHT22;2101;48.290;14.382;2024-03-08T10:08:07;6.40;99.90
4175;DHT22;2101;48.290;14.382;2024-03-08T10:10:37;6.70;99.90
4175;DHT22;2101;48.290;14.382;2024-03-08T10:13:09;6.80;99.90
4175;DHT22;2101;48.290;14.382;2024-03-08T10:15:36;6.70;99.90
4175;DHT22;2101;48.290;14.382;2024-03-08T10:18:04;6.80;99.90
4175;DHT22;2101;48.290;14.382;2024-03-08T10:20:31;6.80;99.90
4175;DHT22;2101;48.290;14.382;2024-03-08T10:23:03;6.90;99.90
4175;DHT22;2101;48.290;14.382;2024-03-08T10:25:32;6.90;99.90
4175;DHT22;2101;48.290;14.382;2024-03-08T10:27:58;7.20;99.90
4175;DHT22;2101;48.290;14.382;2024-03-08T10:30:24;7.10;99.90
4175;DHT22;2101;48.290;14.382;2024-03-08T10:32:50;7.10;99.90
4175;DHT22;2101;48.290;14.382;2024-03-08T10:35:17;7.20;99.90
4175;DHT22;2101;48.290;14.382;2024-03-08T10:37:50;7.40;99.90
4175;DHT22;2101;48.290;14.382;2024-03-08T10:40:25;7.00;99.90
4175;DHT22;2101;48.290;14.382;2024-03-08T10:42:58;7.20;99.90
4175;DHT22;2101;48.290;14.382;2024-03-08T10:45:35;7.40;99.90
4175;DHT22;2101;48.290;14.382;2024-03-08T10:50:49;7.60;99.90
4175;DHT22;2101;48.290;14.382;2024-03-08T10:53:18;7.60;99.90
4175;DHT22;2101;48.290;14.382;2024-03-08T10:55:44;7.90;99.90
4175;DHT22;2101;48.290;14.382;2024-03-08T10:58:10;7.80;99.90
4175;DHT22;2101;48.290;14.382;2024-03-08T11:00:36;7.50;99.90
4175;DHT22;2101;48.290;14.382;2024-03-08T11:03:03;7.50;99.90
4175;DHT22;2101;48.290;14.382;2024-03-08T11:05:37;7.40;99.90
4175;DHT22;2101;48.290;14.382;2024-03-08T11:08:24;7.40;99.90
4175;DHT22;2101;48.290;14.382;2024-03-08T11:10:50;7.60;99.90
4175;DHT22;2101;48.290;14.382;2024-03-08T11:13:42;7.70;99.90
4175;DHT22;2101;48.290;14.382;2024-03-08T11:18:59;7.60;99.90
4175;DHT22;2101;48.290;14.382;2024-03-08T11:21:32;7.70;99.90
4175;DHT22;2101;48.290;14.382;2024-03-08T11:24:13;7.90;99.90
4175;DHT22;2101;48.290;14.382;2024-03-08T11:26:39;8.00;99.90
4175;DHT22;2101;48.290;14.382;2024-03-08T11:32:14;7.80;99.90
4175;DHT22;2101;48.290;14.382;2024-03-08T11:34:43;8.00;99.90
4175;DHT22;2101;48.290;14.382;2024-03-08T11:37:15;8.10;99.90
4175;DHT22;2101;48.290;14.382;2024-03-08T11:39:54;8.10;99.90
4175;DHT22;2101;48.290;14.382;2024-03-08T11:42:27;8.30;99.90
4175;DHT22;2101;48.290;14.382;2024-03-08T11:44:53;8.10;99.90
4175;DHT22;2101;48.290;14.382;2024-03-08T11:47:20;8.00;99.90
4175;DHT22;2101;48.290;14.382;2024-03-08T11:49:46;8.00;99.90
4175;DHT22;2101;48.290;14.382;2024-03-08T11:52:16;8.30;99.90
4175;DHT22;2101;48.290;14.382;2024-03-08T11:54:51;8.40;99.90
4175;DHT22;2101;48.290;14.382;2024-03-08T11:57:23;8.10;99.90
4175;DHT22;2101;48.290;14.382;2024-03-08T11:59:52;8.20;99.90
4175;DHT22;2101;48.290;14.382;2024-03-08T12:02:18;8.00;99.90
4175;DHT22;2101;48.290;14.382;2024-03-08T12:04:45;8.20;99.90
4175;DHT22;2101;48.290;14.382;2024-03-08T12:07:14;8.50;99.90
4175;DHT22;2101;48.290;14.382;2024-03-08T12:09:44;8.30;99.90
4175;DHT22;2101;48.290;14.382;2024-03-08T12:12:30;8.20;99.90
4175;DHT22;2101;48.290;14.382;2024-03-08T12:14:57;8.30;99.90
4175;DHT22;2101;48.290;14.382;2024-03-08T12:17:23;8.50;99.90
4175;DHT22;2101;48.290;14.382;2024-03-08T12:19:49;8.40;99.90
4175;DHT22;2101;48.290;14.382;2024-03-08T12:22:17;8.30;99.90
4175;DHT22;2101;48.290;14.382;2024-03-08T12:24:43;8.30;99.90
4175;DHT22;2101;48.290;14.382;2024-03-08T12:27:20;8.40;99.90
4175;DHT22;2101;48.290;14.382;2024-03-08T12:29:46;8.60;99.90
4175;DHT22;2101;48.290;14.382;2024-03-08T12:32:15;8.60;99.90
4175;DHT22;2101;48.290;14.382;2024-03-08T12:34:41;8.60;99.90
4175;DHT22;2101;48.290;14.382;2024-03-08T12:37:07;8.70;99.90
4175;DHT22;2101;48.290;14.382;2024-03-08T12:39:35;8.60;99.90
4175;DHT22;2101;48.290;14.382;2024-03-08T12:42:00;8.40;99.90
4175;DHT22;2101;48.290;14.382;2024-03-08T12:44:26;8.30;99.90
4175;DHT22;2101;48.290;14.382;2024-03-08T12:46:53;8.30;99.90
4175;DHT22;2101;48.290;14.382;2024-03-08T12:49:19;8.50;99.90
4175;DHT22;2101;48.290;14.382;2024-03-08T12:51:48;8.40;99.90
4175;DHT22;2101;48.290;14.382;2024-03-08T12:54:14;8.40;99.90
4175;DHT22;2101;48.290;14.382;2024-03-08T12:56:40;8.50;99.90
4175;DHT22;2101;48.290;14.382;2024-03-08T12:59:07;8.40;99.90
4175;DHT22;2101;48.290;14.382;2024-03-08T13:01:34;8.50;99.90
4175;DHT22;2101;48.290;14.382;2024-03-08T13:04:03;8.50;99.90
4175;DHT22;2101;48.290;14.382;2024-03-08T13:06:29;8.60;99.90
4175;DHT22;2101;48.290;14.382;2024-03-08T13:08:57;8.70;99.90
4175;DHT22;2101;48.290;14.382;2024-03-08T13:11:24;8.60;99.90
4175;DHT22;2101;48.290;14.382;2024-03-08T13:13:51;8.50;99.90
4175;DHT22;2101;48.290;14.382;2024-03-08T13:16:20;8.50;99.90
4175;DHT22;2101;48.290;14.382;2024-03-08T13:18:46;8.60;99.90
4175;DHT22;2101;48.290;14.382;2024-03-08T13:21:15;8.70;99.90
4175;DHT22;2101;48.290;14.382;2024-03-08T13:23:45;8.70;99.90
4175;DHT22;2101;48.290;14.382;2024-03-08T13:26:12;8.50;99.90
4175;DHT22;2101;48.290;14.382;2024-03-08T13:28:47;8.70;99.90
4175;DHT22;2101;48.290;14.382;2024-03-08T13:31:17;8.70;99.90
4175;DHT22;2101;48.290;14.382;2024-03-08T13:33:45;8.70;99.90
4175;DHT22;2101;48.290;14.382;2024-03-08T13:36:14;8.70;99.90
4175;DHT22;2101;48.290;14.382;2024-03-08T13:38:45;8.80;99.90
4175;DHT22;2101;48.290;14.382;2024-03-08T13:41:13;8.80;99.90
4175;DHT22;2101;48.290;14.382;2024-03-08T13:43:48;8.90;99.90
4175;DHT22;2101;48.290;14.382;2024-03-08T13:46:17;8.80;99.90
4175;DHT22;2101;48.290;14.382;2024-03-08T13:48:43;8.90;99.90
4175;DHT22;2101;48.290;14.382;2024-03-08T13:51:09;9.00;99.90
4175;DHT22;2101;48.290;14.382;2024-03-08T13:53:41;8.90;99.90
4175;DHT22;2101;48.290;14.382;2024-03-08T13:56:07;8.70;99.90
4175;DHT22;2101;48.290;14.382;2024-03-08T13:58:36;8.70;99.90
4175;DHT22;2101;48.290;14.382;2024-03-08T14:01:01;8.80;99.90
4175;DHT22;2101;48.290;14.382;2024-03-08T14:03:28;8.70;99.90
4175;DHT22;2101;48.290;14.382;2024-03-08T14:05:54;8.70;99.90
4175;DHT22;2101;48.290;14.382;2024-03-08T14:08:21;8.70;99.90
4175;DHT22;2101;48.290;14.382;2024-03-08T14:10:47;9.00;99.90
4175;DHT22;2101;48.290;14.382;2024-03-08T14:13:14;9.10;99.90
4175;DHT22;2101;48.290;14.382;2024-03-08T14:15:44;9.00;99.90
4175;DHT22;2101;48.290;14.382;2024-03-08T14:18:11;9.10;99.90
4175;DHT22;2101;48.290;14.382;2024-03-08T14:20:39;9.10;99.90
4175;DHT22;2101;48.290;14.382;2024-03-08T14:23:04;9.10;99.90
4175;DHT22;2101;48.290;14.382;2024-03-08T14:25:33;8.90;99.90
4175;DHT22;2101;48.290;14.382;2024-03-08T14:28:02;8.90;99.90
4175;DHT22;2101;48.290;14.382;2024-03-08T14:30:32;8.90;99.90
4175;DHT22;2101;48.290;14.382;2024-03-08T14:33:02;8.70;99.90
4175;DHT22;2101;48.290;14.382;2024-03-08T14:35:28;8.80;99.90
4175;DHT22;2101;48.290;14.382;2024-03-08T14:37:58;8.80;99.90
4175;DHT22;2101;48.290;14.382;2024-03-08T14:40:24;8.80;99.90
4175;DHT22;2101;48.290;14.382;2024-03-08T14:42:51;8.70;99.90
4175;DHT22;2101;48.290;14.382;2024-03-08T14:45:17;8.80;99.90
4175;DHT22;2101;48.290;14.382;2024-03-08T14:47:49;8.90;99.90
4175;DHT22;2101;48.290;14.382;2024-03-08T14:50:19;8.80;99.90
4175;DHT22;2101;48.290;14.382;2024-03-08T14:52:45;8.60;99.90
4175;DHT22;2101;48.290;14.382;2024-03-08T14:55:14;8.60;99.90
4175;DHT22;2101;48.290;14.382;2024-03-08T14:57:43;8.50;99.90
4175;DHT22;2101;48.290;14.382;2024-03-08T15:00:14;8.60;99.90
4175;DHT22;2101;48.290;14.382;2024-03-08T15:02:55;8.50;99.90
4175;DHT22;2101;48.290;14.382;2024-03-08T15:05:22;8.50;99.90
4175;DHT22;2101;48.290;14.382;2024-03-08T15:07:55;8.50;99.90
4175;DHT22;2101;48.290;14.382;2024-03-08T15:10:21;8.30;99.90
4175;DHT22;2101;48.290;14.382;2024-03-08T15:12:51;8.40;99.90
4175;DHT22;2101;48.290;14.382;2024-03-08T15:15:21;8.30;99.90
4175;DHT22;2101;48.290;14.382;2024-03-08T15:17:50;8.30;99.90
4175;DHT22;2101;48.290;14.382;2024-03-08T15:20:16;8.40;99.90
4175;DHT22;2101;48.290;14.382;2024-03-08T15:22:54;8.40;99.90
4175;DHT22;2101;48.290;14.382;2024-03-08T15:25:24;8.40;99.90
4175;DHT22;2101;48.290;14.382;2024-03-08T15:27:53;8.30;99.90
4175;DHT22;2101;48.290;14.382;2024-03-08T15:30:20;8.30;99.90
4175;DHT22;2101;48.290;14.382;2024-03-08T15:32:49;8.30;99.90
4175;DHT22;2101;48.290;14.382;2024-03-08T15:35:16;8.20;99.90
4175;DHT22;2101;48.290;14.382;2024-03-08T15:37:44;8.20;99.90
4175;DHT22;2101;48.290;14.382;2024-03-08T15:40:13;8.10;99.90
4175;DHT22;2101;48.290;14.382;2024-03-08T15:42:54;8.10;99.90
4175;DHT22;2101;48.290;14.382;2024-03-08T15:45:20;8.00;99.90
4175;DHT22;2101;48.290;14.382;2024-03-08T15:47:48;7.90;99.90
4175;DHT22;2101;48.290;14.382;2024-03-08T15:50:14;7.90;99.90
4175;DHT22;2101;48.290;14.382;2024-03-08T15:52:44;7.90;99.90
4175;DHT22;2101;48.290;14.382;2024-03-08T15:55:17;7.80;99.90
4175;DHT22;2101;48.290;14.382;2024-03-08T15:57:51;7.80;99.90
4175;DHT22;2101;48.290;14.382;2024-03-08T16:00:20;7.70;99.90
4175;DHT22;2101;48.290;14.382;2024-03-08T16:03:04;7.60;99.90
4175;DHT22;2101;48.290;14.382;2024-03-08T16:05:36;7.50;99.90
4175;DHT22;2101;48.290;14.382;2024-03-08T16:08:02;7.50;99.90
4175;DHT22;2101;48.290;14.382;2024-03-08T16:10:29;7.50;99.90
4175;DHT22;2101;48.290;14.382;2024-03-08T16:12:57;7.50;99.90
4175;DHT22;2101;48.290;14.382;2024-03-08T16:15:24;7.40;99.90